• Join FlightAware (Why Join?)
  • Login
  • US Flag GB Flag 
23:23 EDT


 

Airport Tracker/Info


-or-


 

Live Flight TrackerFlight Track Log ✈ SWA3678 ✈ 11-May-2013 ✈ KTPA - KPHL

Flight Track Log - Related Links

Times and Time Zones

All times are in EDT time to prevent confusion due to time zone crossing. See the SWA3678 flight status page for this flight to view local times or setup timezone preferences in your user account.

Time Position Orientation Groundspeed Altitude Reporting Facility
EDT Latitude Longitude Course Direction KTS MPH feet Rate Location/Type
19:00 27.9667 -82.5500 211° Southwest 168 193 600  Level Tampa TRACON
19:01 27.9167 -82.5833 211° Southwest 205 236 3,300 2,880 Climbing Tampa TRACON
19:03 27.9369 -82.7094 280° West 210 242 10,100 3,120 Climbing Jacksonville Center
19:04 27.9850 -82.7703 312° West 226 260 13,200 2,460 Climbing Jacksonville Center
19:05 28.0372 -82.8339 313° West 251 289 15,100 2,100 Climbing Jacksonville Center
19:06 28.1353 -82.8383 358° North 295 339 17,400 2,220 Climbing Jacksonville Center
19:07 28.2439 -82.8336 North 343 395 19,600 2,220 Climbing Jacksonville Center
19:08 28.3544 -82.8242 North 364 419 21,900 2,340 Climbing Jacksonville Center
19:09 28.4672 -82.8100 North 386 444 24,300 2,160 Climbing Jacksonville Center
19:10 28.5861 -82.7956 North 407 468 26,300 1,800 Climbing Jacksonville Center
19:11 28.7028 -82.7789 North 420 483 28,000 840 Climbing Jacksonville Center
19:12 28.8219 -82.7647 North 426 490 28,000  Level Jacksonville Center
19:13 28.9386 -82.7503 North 426 490 28,000  Level Jacksonville Center
19:14 29.0578 -82.7358 North 426 490 28,000  Level Jacksonville Center
19:15 29.1767 -82.7214 North 426 490 28,000  Level Jacksonville Center
19:16 29.2978 -82.7069 North 426 490 28,000  Level Jacksonville Center
19:17 29.4167 -82.6922 North 426 490 28,000  Level Jacksonville Center
19:18 29.5272 -82.6969 358° North 426 490 28,000  Level Jacksonville Center
19:19 29.6506 -82.6967 360° North 426 490 28,000  Level Jacksonville Center
19:20 29.7694 -82.6939 North 426 490 28,000 300 Level Jacksonville Center
19:21 29.8883 -82.6914 North 426 490 28,700 480 Climbing Jacksonville Center
19:22 30.0200 -82.6911 360° North 426 490 29,000 120 Climbing Jacksonville Center
19:23 30.1306 -82.6883 North 426 490 29,000  Level Jacksonville Center
19:24 30.2517 -82.6881 360° North 426 490 29,000  Level Jacksonville Center
19:25 30.3750 -82.6856 North 432 497 29,000  Level Jacksonville Center
19:26 30.4981 -82.6828 North 437 503 29,000  Level Jacksonville Center
19:27 30.6275 -82.6319 19° North 437 503 29,000  Level Jacksonville Center
19:28 30.7400 -82.5736 24° Northeast 432 497 29,000  Level Jacksonville Center
19:29 30.8547 -82.5175 23° Northeast 438 504 29,000  Level Jacksonville Center
19:30 30.9672 -82.4636 22° Northeast 438 504 29,000  Level Jacksonville Center
19:31 31.0842 -82.4097 22° Northeast 438 504 29,000  Level Jacksonville Center
19:32 31.1967 -82.3533 23° Northeast 433 498 29,000  Level Jacksonville Center
19:33 31.3092 -82.2969 23° Northeast 433 498 29,000  Level Jacksonville Center
19:34 31.4236 -82.2425 22° Northeast 433 498 29,000  Level Jacksonville Center
19:35 31.5403 -82.1856 23° Northeast 433 498 29,000  Level Jacksonville Center
19:36 31.6547 -82.1261 24° Northeast 443 510 29,000  Level Jacksonville Center
19:37 31.7608 -82.0739 23° Northeast 448 516 29,000  Level Jacksonville Center
19:38 31.8900 -82.0092 23° Northeast 457 526 29,000  Level Jacksonville Center
19:39 31.9939 -81.9592 22° Northeast 452 520 29,000  Level Jacksonville Center
19:40 32.1250 -81.8967 22° Northeast 461 531 29,000  Level Jacksonville Center
19:41 32.2436 -81.8414 22° Northeast 455 524 29,000  Level Jacksonville Center
19:42 32.3497 -81.7908 22° Northeast 455 524 29,000  Level Jacksonville Center
19:43 32.4786 -81.7278 22° Northeast 448 516 29,000  Level Jacksonville Center
19:44 32.5969 -81.6744 21° North 448 516 29,000  Level Jacksonville Center
19:45 32.7008 -81.6211 23° Northeast 448 516 29,000  Level Jacksonville Center
19:46 32.8172 -81.5653 22° Northeast 448 516 29,000  Level Jacksonville Center
19:47 32.9356 -81.5064 23° Northeast 448 516 29,000  Level Jacksonville Center
19:48 33.0411 -81.4331 30° Northeast 442 509 29,000  Level Jacksonville Center
19:49 33.1467 -81.3469 34° Northeast 442 509 29,000  Level Jacksonville Center
19:50 33.2519 -81.2558 36° Northeast 455 524 29,000  Level Jacksonville Center
19:51 33.3592 -81.1667 35° Northeast 460 529 29,000 -60 Level Jacksonville Center
19:52 33.4625 -81.0800 35° Northeast 460 529 28,900 -420 Descending Jacksonville Center
19:53 33.5694 -80.9881 36° Northeast 460 529 28,200 -480 Descending Jacksonville Center
19:54 33.6767 -80.8983 35° Northeast 460 529 28,000 -120 Descending Jacksonville Center
19:55 33.7794 -80.8086 36° Northeast 460 529 28,000 -300 Level Jacksonville Center
19:56 33.8864 -80.7161 36° Northeast 460 529 27,500 -600 Descending Jacksonville Center
19:57 33.9892 -80.6283 35° Northeast 460 529 26,900 -300 Descending Jacksonville Center
19:58 34.0919 -80.5406 35° Northeast 460 529 27,000  Climbing Jacksonville Center
19:59 34.1925 -80.4550 35° Northeast 455 524 27,000  Level Jacksonville Center
20:00 34.2931 -80.3642 37° Northeast 449 517 27,000  Level Jacksonville Center
20:02 34.4489 -80.2308 35° Northeast 441 507 27,000  Level Washington Center
20:02 34.5483 -80.1433 36° Northeast 441 507 27,000  Level Washington Center
20:03 34.6519 -80.0506 36° Northeast 441 507 27,000  Level Washington Center
20:04 34.7425 -79.9747 35° Northeast 441 507 27,000  Level Washington Center
20:05 34.8417 -79.8864 36° Northeast 441 507 27,000  Level Washington Center
20:06 34.9408 -79.7978 36° Northeast 441 507 27,000  Level Washington Center
20:07 35.0397 -79.7092 36° Northeast 441 507 27,000  Level Washington Center
20:08 35.1408 -79.6228 35° Northeast 441 507 27,000  Level Washington Center
20:10 35.2436 -79.5442 32° Northeast 441 507 27,000  Level Washington Center
20:11 35.3506 -79.4653 31° Northeast 436 502 27,000  Level Washington Center
20:11 35.4681 -79.3792 31° Northeast 441 507 27,000  Level Washington Center
20:13 35.5642 -79.3122 30° Northeast 436 502 27,000  Level Washington Center
20:14 35.6708 -79.2356 30° Northeast 436 502 27,000  Level Washington Center
20:14 35.7775 -79.1558 31° Northeast 436 502 27,000  Level Washington Center
20:15 35.8842 -79.0786 30° Northeast 436 502 27,000  Level Washington Center
20:16 35.9908 -78.9986 31° Northeast 436 502 27,000  Level Washington Center
20:17 36.0953 -78.9208 31° Northeast 436 502 27,000  Level Washington Center
20:18 36.2017 -78.8406 31° Northeast 436 502 27,000  Level Washington Center
20:19 36.3081 -78.7622 31° Northeast 436 502 27,000 -60 Level Washington Center
20:21 36.4125 -78.6839 31° Northeast 436 502 26,900 -660 Descending Washington Center
20:21 36.5167 -78.6056 31° Northeast 436 502 25,800 -1,020 Descending Washington Center
20:22 36.6189 -78.5264 32° Northeast 436 502 25,000 -420 Descending Washington Center
20:23 36.7292 -78.4425 31° Northeast 431 496 25,000  Level Washington Center
20:24 36.8311 -78.3658 31° Northeast 431 496 25,000  Level Washington Center
20:25 36.9311 -78.2889 32° Northeast 426 490 25,000  Level Washington Center
20:26 37.0350 -78.2094 31° Northeast 426 490 25,000  Level Washington Center
20:27 37.1389 -78.1294 32° Northeast 431 496 25,000  Level Washington Center
20:28 37.2408 -78.0519 31° Northeast 431 496 25,000  Level Washington Center
20:29 37.3425 -77.9717 32° Northeast 431 496 25,000  Level Washington Center
20:31 37.4464 -77.8911 32° Northeast 431 496 25,000  Level Washington Center
20:32 37.5458 -77.8131 32° Northeast 431 496 25,000  Level Washington Center
20:32 37.6433 -77.7242 36° Northeast 436 502 25,000  Level Washington Center
20:33 37.7428 -77.6375 35° Northeast 436 502 25,000  Level Washington Center
20:34 37.8361 -77.5481 37° Northeast 431 496 25,000  Level Washington Center
20:35 37.9294 -77.4583 37° Northeast 426 490 25,000  Level Washington Center
20:36 38.0083 -77.3392 50° Northeast 421 484 25,000  Level Washington Center
20:38 38.0789 -77.2194 53° Northeast 421 484 25,000  Level Washington Center
20:38 38.1556 -77.0917 53° Northeast 437 503 25,000  Level Washington Center
20:39 38.2278 -76.9661 54° Northeast 437 503 25,000  Level Washington Center
20:40 38.3022 -76.8431 52° Northeast 437 503 25,000  Level Washington Center
20:41 38.3764 -76.7200 52° Northeast 437 503 25,000 -240 Level Washington Center
20:42 38.4506 -76.5911 54° Northeast 437 503 24,600 -720 Descending Washington Center
20:43 38.5225 -76.4675 53° Northeast 437 503 23,600 -960 Descending Washington Center
20:45 38.5983 -76.3433 52° Northeast 437 503 22,700 -960 Descending Washington Center
20:45 38.6803 -76.2192 50° Northeast 437 503 21,700 -1,140 Descending Washington Center
20:46 38.7786 -76.1350 34° Northeast 470 541 20,500 -1,620 Descending Washington Center
20:47 38.8686 -76.0369 40° Northeast 453 521 18,500 -2,100 Descending Washington Center
20:49 38.9461 -75.9306 47° Northeast 406 467 16,300 -2,100 Descending Washington Center
20:50 39.1167 -75.7667 37° Northeast 371 427 12,500 -1,980 Descending Philadelphia TRACON
20:51 39.2000 -75.7000 32° Northeast 365 420 10,600 -1,320 Descending Philadelphia TRACON
20:52 39.2833 -75.6500 25° Northeast 329 379 10,000 -660 Descending Philadelphia TRACON
20:53 39.3667 -75.5833 32° Northeast 317 365 9,400 -780 Descending Philadelphia TRACON
20:54 39.4167 -75.5000 52° Northeast 319 367 8,500 -480 Descending Philadelphia TRACON
20:55 39.4333 -75.4000 78° East 308 354 8,500 -720 Level Philadelphia TRACON
20:56 39.4833 -75.3000 57° Northeast 313 360 7,100 -1,320 Descending Philadelphia TRACON
20:57 39.5500 -75.2333 38° Northeast 291 335 5,900 -1,200 Descending Philadelphia TRACON
20:58 39.6167 -75.1833 30° Northeast 292 336 4,700 -1,020 Descending Philadelphia TRACON
20:59 39.6833 -75.1333 30° Northeast 278 320 3,900 -900 Descending Philadelphia TRACON
21:00 39.7667 -75.1167 North 253 291 2,900 -900 Descending Philadelphia TRACON
21:01 39.8167 -75.1000 14° North 224 258 2,100 -540 Descending Philadelphia TRACON
21:02 39.8667 -75.1000 360° North 178 205 1,900 -540 Descending Philadelphia TRACON
21:03 39.8833 -75.1500 293° West 138 159 1,100 -720 Descending Philadelphia TRACON
21:04 39.8833 -75.2000 270° West 139 160 500 -600 Descending Philadelphia TRACON
21:06 39.8667 -75.2333 255° West  Level FlightAware Approximate
21:13 39.8722 -75.2409 255° West  Level Estimated